メインページ
METAR-TAF:

METAR-TAF

空港 :

クウェート, クウェート

クウェート国際空港

緯度: 29-13N, 経度: 047-59E, 海抜: 55m

現時点の気象観測

当レポートは36分前の09:00(UTC)に作成
南/南東の風 4kt
気温 38°C
湿度 19%
気圧 1008 hPa
視程: 1800m
(弱い) 煙霧

METAR: OKBK 290900Z 16004KT 1800 -HZ NSC 38/10 Q1008 NOSIG

時間: 12:36 (09:36 UTC)

予報

当レポートは4時間51分前の04:45(UTC)に作成
予報は29日の 06時(UTC)から 30日の 12時(UTC)まで有効
変向風 3kt
視程: 3000m
煙霧
29日の 06時(UTC)から 29日の 08時(UTC)まで一時的に
視程: 0500m
広範な塵
29日の 10時(UTC)から 29日の 12時(UTC)まで徐々に
南/南東の風 8kt
視程: 6000m

TAF: OKBK 290445Z 2906/3012 VRB03KT 3000 HZ NSC TEMPO 2906/2908 0500 DU BECMG 2910/2912 15008KT 6000

4,000以上の空港の気象観測と天気予報(METAR報とTAF報)

利用可能な観測所は地図上に黄色い丸と赤い丸で示す。

丸の上にカーソルを重ねると観測所名を参照できる。

次にクリックすると気象観測と天気予報を参照できる。

マップの切り替え:黒色「×」印の緑ボタンをクリックして拡大、「-」印の緑ボタンをクリックして縮小、緑色の三角印をクリックして隣りの地図に切り替え


METAR-TAF: